sensor_id;sensor_type;location;lat;lon;timestamp;P1;durP1;ratioP1;P2;durP2;ratioP2
17091;SDS011;8661;45.700;4.880;2023-06-22T00:01:00;13.83;;;7.33;;
17091;SDS011;8661;45.700;4.880;2023-06-22T00:03:27;12.77;;;6.70;;
17091;SDS011;8661;45.700;4.880;2023-06-22T00:05:54;15.10;;;6.63;;
17091;SDS011;8661;45.700;4.880;2023-06-22T00:08:21;14.40;;;6.97;;
17091;SDS011;8661;45.700;4.880;2023-06-22T00:10:48;14.00;;;6.77;;
17091;SDS011;8661;45.700;4.880;2023-06-22T00:13:16;18.40;;;7.47;;
17091;SDS011;8661;45.700;4.880;2023-06-22T00:15:44;12.20;;;6.97;;
17091;SDS011;8661;45.700;4.880;2023-06-22T00:18:10;13.10;;;6.93;;
17091;SDS011;8661;45.700;4.880;2023-06-22T00:20:38;14.13;;;7.53;;
17091;SDS011;8661;45.700;4.880;2023-06-22T00:23:05;16.87;;;7.20;;
17091;SDS011;8661;45.700;4.880;2023-06-22T00:25:33;15.40;;;7.63;;
17091;SDS011;8661;45.700;4.880;2023-06-22T00:28:01;11.80;;;7.37;;
17091;SDS011;8661;45.700;4.880;2023-06-22T00:30:30;15.07;;;6.97;;
17091;SDS011;8661;45.700;4.880;2023-06-22T00:32:58;16.53;;;7.00;;
17091;SDS011;8661;45.700;4.880;2023-06-22T00:35:25;12.20;;;6.90;;
17091;SDS011;8661;45.700;4.880;2023-06-22T00:37:54;18.27;;;7.40;;
17091;SDS011;8661;45.700;4.880;2023-06-22T00:40:25;14.30;;;8.33;;
17091;SDS011;8661;45.700;4.880;2023-06-22T00:42:53;15.37;;;8.20;;
17091;SDS011;8661;45.700;4.880;2023-06-22T00:45:20;19.10;;;7.50;;
17091;SDS011;8661;45.700;4.880;2023-06-22T00:47:49;12.63;;;7.50;;
17091;SDS011;8661;45.700;4.880;2023-06-22T00:50:18;14.13;;;7.63;;
17091;SDS011;8661;45.700;4.880;2023-06-22T00:52:48;15.90;;;7.77;;
17091;SDS011;8661;45.700;4.880;2023-06-22T00:55:18;19.20;;;7.43;;
17091;SDS011;8661;45.700;4.880;2023-06-22T00:57:46;16.33;;;7.60;;
17091;SDS011;8661;45.700;4.880;2023-06-22T01:00:14;19.80;;;8.43;;
17091;SDS011;8661;45.700;4.880;2023-06-22T01:02:42;19.93;;;8.33;;
17091;SDS011;8661;45.700;4.880;2023-06-22T01:05:12;19.63;;;8.17;;
17091;SDS011;8661;45.700;4.880;2023-06-22T01:07:41;16.60;;;7.80;;
17091;SDS011;8661;45.700;4.880;2023-06-22T01:10:19;14.63;;;7.90;;
17091;SDS011;8661;45.700;4.880;2023-06-22T01:12:52;18.07;;;7.97;;
17091;SDS011;8661;45.700;4.880;2023-06-22T01:15:28;13.20;;;7.50;;
17091;SDS011;8661;45.700;4.880;2023-06-22T01:17:59;18.80;;;8.77;;
17091;SDS011;8661;45.700;4.880;2023-06-22T01:20:28;12.97;;;8.40;;
17091;SDS011;8661;45.700;4.880;2023-06-22T01:23:02;18.13;;;7.97;;
17091;SDS011;8661;45.700;4.880;2023-06-22T01:25:36;12.53;;;7.83;;
17091;SDS011;8661;45.700;4.880;2023-06-22T01:28:17;14.87;;;7.77;;
17091;SDS011;8661;45.700;4.880;2023-06-22T01:30:54;15.73;;;7.77;;
17091;SDS011;8661;45.700;4.880;2023-06-22T01:33:30;16.30;;;8.30;;
17091;SDS011;8661;45.700;4.880;2023-06-22T01:36:01;16.87;;;8.13;;
17091;SDS011;8661;45.700;4.880;2023-06-22T01:38:28;16.83;;;8.10;;
17091;SDS011;8661;45.700;4.880;2023-06-22T01:40:56;16.53;;;8.13;;
17091;SDS011;8661;45.700;4.880;2023-06-22T01:43:24;18.63;;;8.07;;
17091;SDS011;8661;45.700;4.880;2023-06-22T01:45:54;18.40;;;8.43;;
17091;SDS011;8661;45.700;4.880;2023-06-22T01:48:22;18.87;;;7.90;;
17091;SDS011;8661;45.700;4.880;2023-06-22T01:50:51;17.27;;;8.67;;
17091;SDS011;8661;45.700;4.880;2023-06-22T01:53:18;12.73;;;8.00;;
17091;SDS011;8661;45.700;4.880;2023-06-22T01:55:47;14.90;;;8.20;;
17091;SDS011;8661;45.700;4.880;2023-06-22T01:58:14;11.80;;;7.33;;
17091;SDS011;8661;45.700;4.880;2023-06-22T02:00:44;21.77;;;7.80;;
17091;SDS011;8661;45.700;4.880;2023-06-22T02:03:18;18.37;;;8.20;;
17091;SDS011;8661;45.700;4.880;2023-06-22T02:05:49;14.90;;;7.30;;
17091;SDS011;8661;45.700;4.880;2023-06-22T02:08:19;13.43;;;7.00;;
17091;SDS011;8661;45.700;4.880;2023-06-22T02:10:48;13.77;;;7.17;;
17091;SDS011;8661;45.700;4.880;2023-06-22T02:13:17;15.10;;;8.37;;
17091;SDS011;8661;45.700;4.880;2023-06-22T02:15:44;17.37;;;8.23;;
17091;SDS011;8661;45.700;4.880;2023-06-22T02:18:12;10.83;;;8.10;;
17091;SDS011;8661;45.700;4.880;2023-06-22T02:20:40;13.80;;;7.47;;
17091;SDS011;8661;45.700;4.880;2023-06-22T02:23:07;19.60;;;8.20;;
17091;SDS011;8661;45.700;4.880;2023-06-22T02:25:34;13.30;;;6.80;;
17091;SDS011;8661;45.700;4.880;2023-06-22T02:28:02;15.03;;;7.20;;
17091;SDS011;8661;45.700;4.880;2023-06-22T02:30:29;14.63;;;7.97;;
17091;SDS011;8661;45.700;4.880;2023-06-22T02:32:56;14.83;;;7.53;;
17091;SDS011;8661;45.700;4.880;2023-06-22T02:35:25;19.40;;;7.03;;
17091;SDS011;8661;45.700;4.880;2023-06-22T02:37:53;16.33;;;7.50;;
17091;SDS011;8661;45.700;4.880;2023-06-22T02:40:20;17.13;;;7.50;;
17091;SDS011;8661;45.700;4.880;2023-06-22T02:42:47;13.87;;;7.37;;
17091;SDS011;8661;45.700;4.880;2023-06-22T02:45:14;13.27;;;7.40;;
17091;SDS011;8661;45.700;4.880;2023-06-22T02:47:41;16.43;;;8.00;;
17091;SDS011;8661;45.700;4.880;2023-06-22T02:50:09;16.30;;;7.57;;
17091;SDS011;8661;45.700;4.880;2023-06-22T02:52:36;14.30;;;8.73;;
17091;SDS011;8661;45.700;4.880;2023-06-22T02:55:05;16.17;;;7.60;;
17091;SDS011;8661;45.700;4.880;2023-06-22T02:57:33;17.17;;;9.00;;
17091;SDS011;8661;45.700;4.880;2023-06-22T03:00:02;17.27;;;8.20;;
17091;SDS011;8661;45.700;4.880;2023-06-22T03:02:41;14.60;;;7.47;;
17091;SDS011;8661;45.700;4.880;2023-06-22T03:05:09;16.17;;;7.60;;
17091;SDS011;8661;45.700;4.880;2023-06-22T03:07:38;16.33;;;7.93;;
17091;SDS011;8661;45.700;4.880;2023-06-22T03:10:07;15.47;;;7.37;;
17091;SDS011;8661;45.700;4.880;2023-06-22T03:12:35;20.27;;;8.47;;
17091;SDS011;8661;45.700;4.880;2023-06-22T03:15:03;17.40;;;7.77;;
17091;SDS011;8661;45.700;4.880;2023-06-22T03:17:31;16.33;;;8.17;;
17091;SDS011;8661;45.700;4.880;2023-06-22T03:19:58;15.13;;;7.67;;
17091;SDS011;8661;45.700;4.880;2023-06-22T03:22:25;18.53;;;8.13;;
17091;SDS011;8661;45.700;4.880;2023-06-22T03:24:52;14.40;;;7.27;;
17091;SDS011;8661;45.700;4.880;2023-06-22T03:27:20;15.77;;;8.43;;
17091;SDS011;8661;45.700;4.880;2023-06-22T03:29:47;17.30;;;8.10;;
17091;SDS011;8661;45.700;4.880;2023-06-22T03:32:14;20.87;;;7.87;;
17091;SDS011;8661;45.700;4.880;2023-06-22T03:34:41;14.67;;;7.60;;
17091;SDS011;8661;45.700;4.880;2023-06-22T03:37:12;15.63;;;7.73;;
17091;SDS011;8661;45.700;4.880;2023-06-22T03:39:40;16.57;;;8.00;;
17091;SDS011;8661;45.700;4.880;2023-06-22T03:42:07;18.13;;;10.13;;
17091;SDS011;8661;45.700;4.880;2023-06-22T03:44:35;16.30;;;9.60;;
17091;SDS011;8661;45.700;4.880;2023-06-22T03:47:02;17.40;;;9.60;;
17091;SDS011;8661;45.700;4.880;2023-06-22T03:49:32;13.33;;;7.27;;
17091;SDS011;8661;45.700;4.880;2023-06-22T03:51:59;22.70;;;8.10;;
17091;SDS011;8661;45.700;4.880;2023-06-22T03:54:27;14.47;;;6.83;;
17091;SDS011;8661;45.700;4.880;2023-06-22T03:56:54;18.10;;;7.87;;
17091;SDS011;8661;45.700;4.880;2023-06-22T03:59:22;12.97;;;7.50;;
17091;SDS011;8661;45.700;4.880;2023-06-22T04:01:50;12.83;;;7.07;;
17091;SDS011;8661;45.700;4.880;2023-06-22T04:04:17;19.57;;;7.40;;
17091;SDS011;8661;45.700;4.880;2023-06-22T04:06:44;14.10;;;7.13;;
17091;SDS011;8661;45.700;4.880;2023-06-22T04:09:12;14.57;;;7.43;;
17091;SDS011;8661;45.700;4.880;2023-06-22T04:11:39;14.33;;;7.30;;
17091;SDS011;8661;45.700;4.880;2023-06-22T04:14:06;16.63;;;7.93;;
17091;SDS011;8661;45.700;4.880;2023-06-22T04:16:33;11.80;;;7.37;;
17091;SDS011;8661;45.700;4.880;2023-06-22T04:19:01;17.83;;;8.73;;
17091;SDS011;8661;45.700;4.880;2023-06-22T04:21:28;17.40;;;7.73;;
17091;SDS011;8661;45.700;4.880;2023-06-22T04:23:55;16.80;;;8.50;;
17091;SDS011;8661;45.700;4.880;2023-06-22T04:26:22;21.73;;;8.73;;
17091;SDS011;8661;45.700;4.880;2023-06-22T04:28:49;17.87;;;8.63;;
17091;SDS011;8661;45.700;4.880;2023-06-22T04:31:20;12.07;;;8.23;;
17091;SDS011;8661;45.700;4.880;2023-06-22T04:33:56;19.77;;;8.23;;
17091;SDS011;8661;45.700;4.880;2023-06-22T04:36:24;16.63;;;7.87;;
17091;SDS011;8661;45.700;4.880;2023-06-22T04:38:55;19.57;;;8.87;;
17091;SDS011;8661;45.700;4.880;2023-06-22T04:41:22;13.97;;;8.37;;
17091;SDS011;8661;45.700;4.880;2023-06-22T04:43:49;15.20;;;8.20;;
17091;SDS011;8661;45.700;4.880;2023-06-22T04:46:19;16.00;;;8.27;;
17091;SDS011;8661;45.700;4.880;2023-06-22T04:48:45;20.83;;;8.63;;
17091;SDS011;8661;45.700;4.880;2023-06-22T04:51:12;17.77;;;9.70;;
17091;SDS011;8661;45.700;4.880;2023-06-22T04:53:41;15.20;;;8.57;;
17091;SDS011;8661;45.700;4.880;2023-06-22T04:56:08;14.77;;;8.03;;
17091;SDS011;8661;45.700;4.880;2023-06-22T04:58:35;17.27;;;8.63;;
17091;SDS011;8661;45.700;4.880;2023-06-22T05:01:02;13.10;;;7.87;;
17091;SDS011;8661;45.700;4.880;2023-06-22T05:03:29;18.80;;;9.93;;
17091;SDS011;8661;45.700;4.880;2023-06-22T05:05:56;17.73;;;8.77;;
17091;SDS011;8661;45.700;4.880;2023-06-22T05:08:23;15.67;;;7.93;;
17091;SDS011;8661;45.700;4.880;2023-06-22T05:10:55;18.93;;;8.17;;
17091;SDS011;8661;45.700;4.880;2023-06-22T05:13:22;20.47;;;9.80;;
17091;SDS011;8661;45.700;4.880;2023-06-22T05:15:51;23.47;;;9.70;;
17091;SDS011;8661;45.700;4.880;2023-06-22T05:18:26;19.33;;;9.17;;
17091;SDS011;8661;45.700;4.880;2023-06-22T05:20:54;13.90;;;8.33;;
17091;SDS011;8661;45.700;4.880;2023-06-22T05:23:21;18.60;;;7.87;;
17091;SDS011;8661;45.700;4.880;2023-06-22T05:25:48;13.80;;;8.10;;
17091;SDS011;8661;45.700;4.880;2023-06-22T05:28:16;14.47;;;8.03;;
17091;SDS011;8661;45.700;4.880;2023-06-22T05:30:48;15.37;;;8.27;;
17091;SDS011;8661;45.700;4.880;2023-06-22T05:33:15;16.83;;;8.63;;
17091;SDS011;8661;45.700;4.880;2023-06-22T05:35:41;16.90;;;8.33;;
17091;SDS011;8661;45.700;4.880;2023-06-22T05:38:08;18.73;;;8.30;;
17091;SDS011;8661;45.700;4.880;2023-06-22T05:40:35;19.90;;;8.50;;
17091;SDS011;8661;45.700;4.880;2023-06-22T05:43:02;17.83;;;8.77;;
17091;SDS011;8661;45.700;4.880;2023-06-22T05:45:31;21.53;;;9.17;;
17091;SDS011;8661;45.700;4.880;2023-06-22T05:47:57;15.60;;;9.00;;
17091;SDS011;8661;45.700;4.880;2023-06-22T05:50:24;18.30;;;9.53;;
17091;SDS011;8661;45.700;4.880;2023-06-22T05:52:51;17.03;;;8.80;;
17091;SDS011;8661;45.700;4.880;2023-06-22T05:55:18;16.50;;;8.67;;
17091;SDS011;8661;45.700;4.880;2023-06-22T05:57:45;17.93;;;8.70;;
17091;SDS011;8661;45.700;4.880;2023-06-22T06:00:13;17.87;;;9.00;;
17091;SDS011;8661;45.700;4.880;2023-06-22T06:02:41;18.30;;;9.37;;
17091;SDS011;8661;45.700;4.880;2023-06-22T06:05:09;18.87;;;8.80;;
17091;SDS011;8661;45.700;4.880;2023-06-22T06:07:36;16.60;;;8.33;;
17091;SDS011;8661;45.700;4.880;2023-06-22T06:10:03;19.73;;;8.70;;
17091;SDS011;8661;45.700;4.880;2023-06-22T06:12:31;15.93;;;8.97;;
17091;SDS011;8661;45.700;4.880;2023-06-22T06:14:59;21.93;;;8.57;;
17091;SDS011;8661;45.700;4.880;2023-06-22T06:17:25;18.43;;;8.53;;
17091;SDS011;8661;45.700;4.880;2023-06-22T06:19:54;14.17;;;8.27;;
17091;SDS011;8661;45.700;4.880;2023-06-22T06:22:21;13.73;;;8.23;;
17091;SDS011;8661;45.700;4.880;2023-06-22T06:24:49;18.47;;;8.77;;
17091;SDS011;8661;45.700;4.880;2023-06-22T06:27:16;18.63;;;8.83;;
17091;SDS011;8661;45.700;4.880;2023-06-22T06:29:44;12.10;;;7.87;;
17091;SDS011;8661;45.700;4.880;2023-06-22T06:32:13;21.00;;;8.80;;
17091;SDS011;8661;45.700;4.880;2023-06-22T06:34:40;15.13;;;8.23;;
17091;SDS011;8661;45.700;4.880;2023-06-22T06:37:10;19.23;;;8.33;;
17091;SDS011;8661;45.700;4.880;2023-06-22T06:39:37;20.43;;;8.87;;
17091;SDS011;8661;45.700;4.880;2023-06-22T06:42:04;16.93;;;7.90;;
17091;SDS011;8661;45.700;4.880;2023-06-22T06:44:31;16.60;;;9.43;;
17091;SDS011;8661;45.700;4.880;2023-06-22T06:46:58;19.83;;;8.60;;
17091;SDS011;8661;45.700;4.880;2023-06-22T06:49:25;18.10;;;7.90;;
17091;SDS011;8661;45.700;4.880;2023-06-22T06:51:52;22.07;;;8.47;;
17091;SDS011;8661;45.700;4.880;2023-06-22T06:54:22;17.20;;;8.37;;
17091;SDS011;8661;45.700;4.880;2023-06-22T06:56:49;14.67;;;8.57;;
17091;SDS011;8661;45.700;4.880;2023-06-22T06:59:16;19.00;;;8.90;;
17091;SDS011;8661;45.700;4.880;2023-06-22T07:01:43;16.10;;;8.50;;
17091;SDS011;8661;45.700;4.880;2023-06-22T07:04:09;18.00;;;8.73;;
17091;SDS011;8661;45.700;4.880;2023-06-22T07:06:36;17.03;;;8.53;;
17091;SDS011;8661;45.700;4.880;2023-06-22T07:09:04;18.73;;;8.70;;
17091;SDS011;8661;45.700;4.880;2023-06-22T07:11:32;16.20;;;8.93;;
17091;SDS011;8661;45.700;4.880;2023-06-22T07:14:00;20.03;;;9.77;;
17091;SDS011;8661;45.700;4.880;2023-06-22T07:16:27;22.53;;;9.57;;
17091;SDS011;8661;45.700;4.880;2023-06-22T07:18:56;19.70;;;9.30;;
17091;SDS011;8661;45.700;4.880;2023-06-22T07:21:23;16.10;;;8.93;;
17091;SDS011;8661;45.700;4.880;2023-06-22T07:23:50;16.07;;;9.30;;
17091;SDS011;8661;45.700;4.880;2023-06-22T07:26:17;19.53;;;9.33;;
17091;SDS011;8661;45.700;4.880;2023-06-22T07:28:46;19.80;;;9.60;;
17091;SDS011;8661;45.700;4.880;2023-06-22T07:31:16;16.80;;;8.70;;
17091;SDS011;8661;45.700;4.880;2023-06-22T07:33:43;21.07;;;9.40;;
17091;SDS011;8661;45.700;4.880;2023-06-22T07:36:09;24.13;;;9.57;;
17091;SDS011;8661;45.700;4.880;2023-06-22T07:38:39;19.30;;;8.93;;
17091;SDS011;8661;45.700;4.880;2023-06-22T07:41:06;18.43;;;8.93;;
17091;SDS011;8661;45.700;4.880;2023-06-22T07:43:33;26.57;;;9.50;;
17091;SDS011;8661;45.700;4.880;2023-06-22T07:46:03;21.87;;;9.70;;
17091;SDS011;8661;45.700;4.880;2023-06-22T07:48:30;18.43;;;9.53;;
17091;SDS011;8661;45.700;4.880;2023-06-22T07:50:57;18.87;;;10.07;;
17091;SDS011;8661;45.700;4.880;2023-06-22T07:53:24;23.73;;;9.73;;
17091;SDS011;8661;45.700;4.880;2023-06-22T07:55:51;16.93;;;9.50;;
17091;SDS011;8661;45.700;4.880;2023-06-22T07:58:18;17.23;;;8.87;;
17091;SDS011;8661;45.700;4.880;2023-06-22T08:00:45;19.13;;;9.77;;
17091;SDS011;8661;45.700;4.880;2023-06-22T08:03:15;20.37;;;9.20;;
17091;SDS011;8661;45.700;4.880;2023-06-22T08:05:42;21.33;;;8.87;;
17091;SDS011;8661;45.700;4.880;2023-06-22T08:08:09;20.63;;;8.87;;
17091;SDS011;8661;45.700;4.880;2023-06-22T08:10:36;23.30;;;8.93;;
17091;SDS011;8661;45.700;4.880;2023-06-22T08:13:03;17.60;;;8.50;;
17091;SDS011;8661;45.700;4.880;2023-06-22T08:15:30;20.70;;;8.20;;
17091;SDS011;8661;45.700;4.880;2023-06-22T08:17:57;13.07;;;6.67;;
17091;SDS011;8661;45.700;4.880;2023-06-22T08:20:26;17.30;;;7.20;;
17091;SDS011;8661;45.700;4.880;2023-06-22T08:22:54;13.73;;;7.33;;
17091;SDS011;8661;45.700;4.880;2023-06-22T08:25:23;16.13;;;8.00;;
17091;SDS011;8661;45.700;4.880;2023-06-22T08:27:50;19.53;;;7.30;;
17091;SDS011;8661;45.700;4.880;2023-06-22T08:30:17;16.77;;;6.83;;
17091;SDS011;8661;45.700;4.880;2023-06-22T08:32:44;19.37;;;7.27;;
17091;SDS011;8661;45.700;4.880;2023-06-22T08:35:11;16.13;;;7.87;;
17091;SDS011;8661;45.700;4.880;2023-06-22T08:37:39;20.93;;;7.87;;
17091;SDS011;8661;45.700;4.880;2023-06-22T08:40:07;20.90;;;9.03;;
17091;SDS011;8661;45.700;4.880;2023-06-22T08:42:35;23.63;;;8.60;;
17091;SDS011;8661;45.700;4.880;2023-06-22T08:45:03;23.27;;;8.30;;
17091;SDS011;8661;45.700;4.880;2023-06-22T08:47:30;31.53;;;8.87;;
17091;SDS011;8661;45.700;4.880;2023-06-22T08:49:57;18.20;;;8.30;;
17091;SDS011;8661;45.700;4.880;2023-06-22T08:52:24;19.67;;;8.93;;
17091;SDS011;8661;45.700;4.880;2023-06-22T08:54:52;13.97;;;7.30;;
17091;SDS011;8661;45.700;4.880;2023-06-22T08:57:20;17.33;;;8.43;;
17091;SDS011;8661;45.700;4.880;2023-06-22T08:59:47;16.63;;;7.90;;
17091;SDS011;8661;45.700;4.880;2023-06-22T09:02:17;18.00;;;8.37;;
17091;SDS011;8661;45.700;4.880;2023-06-22T09:04:45;17.50;;;8.23;;
17091;SDS011;8661;45.700;4.880;2023-06-22T09:07:13;13.50;;;8.00;;
17091;SDS011;8661;45.700;4.880;2023-06-22T09:09:47;18.63;;;7.93;;
17091;SDS011;8661;45.700;4.880;2023-06-22T09:12:15;15.00;;;8.80;;
17091;SDS011;8661;45.700;4.880;2023-06-22T09:14:42;15.90;;;6.53;;
17091;SDS011;8661;45.700;4.880;2023-06-22T09:17:09;13.43;;;6.50;;
17091;SDS011;8661;45.700;4.880;2023-06-22T09:19:36;13.57;;;7.20;;
17091;SDS011;8661;45.700;4.880;2023-06-22T09:22:03;17.10;;;7.30;;
17091;SDS011;8661;45.700;4.880;2023-06-22T09:24:31;11.77;;;7.03;;
17091;SDS011;8661;45.700;4.880;2023-06-22T09:26:58;11.43;;;6.30;;
17091;SDS011;8661;45.700;4.880;2023-06-22T09:29:26;16.23;;;7.57;;
17091;SDS011;8661;45.700;4.880;2023-06-22T09:31:53;20.53;;;8.27;;
17091;SDS011;8661;45.700;4.880;2023-06-22T09:34:20;13.73;;;8.20;;
17091;SDS011;8661;45.700;4.880;2023-06-22T09:36:47;16.33;;;8.03;;
17091;SDS011;8661;45.700;4.880;2023-06-22T09:39:14;19.63;;;8.00;;
17091;SDS011;8661;45.700;4.880;2023-06-22T09:41:41;21.03;;;8.50;;
17091;SDS011;8661;45.700;4.880;2023-06-22T09:44:08;22.23;;;8.53;;
17091;SDS011;8661;45.700;4.880;2023-06-22T09:46:36;17.70;;;8.27;;
17091;SDS011;8661;45.700;4.880;2023-06-22T09:49:03;23.67;;;8.87;;
17091;SDS011;8661;45.700;4.880;2023-06-22T09:51:30;14.70;;;7.80;;
17091;SDS011;8661;45.700;4.880;2023-06-22T09:53:57;16.63;;;7.70;;
17091;SDS011;8661;45.700;4.880;2023-06-22T09:56:24;20.03;;;7.70;;
17091;SDS011;8661;45.700;4.880;2023-06-22T09:58:53;18.47;;;7.63;;
17091;SDS011;8661;45.700;4.880;2023-06-22T10:01:20;19.93;;;8.10;;
17091;SDS011;8661;45.700;4.880;2023-06-22T10:03:49;20.70;;;8.97;;
17091;SDS011;8661;45.700;4.880;2023-06-22T10:06:16;15.80;;;7.07;;
17091;SDS011;8661;45.700;4.880;2023-06-22T10:08:43;18.63;;;8.27;;
17091;SDS011;8661;45.700;4.880;2023-06-22T10:11:10;18.30;;;7.67;;
17091;SDS011;8661;45.700;4.880;2023-06-22T10:13:36;27.97;;;8.70;;
17091;SDS011;8661;45.700;4.880;2023-06-22T10:16:03;24.17;;;8.80;;
17091;SDS011;8661;45.700;4.880;2023-06-22T10:18:32;21.77;;;8.23;;
17091;SDS011;8661;45.700;4.880;2023-06-22T10:21:00;20.77;;;7.07;;
17091;SDS011;8661;45.700;4.880;2023-06-22T10:23:27;16.77;;;5.60;;
17091;SDS011;8661;45.700;4.880;2023-06-22T10:25:54;17.00;;;5.27;;
17091;SDS011;8661;45.700;4.880;2023-06-22T10:28:23;11.50;;;5.43;;
17091;SDS011;8661;45.700;4.880;2023-06-22T10:30:50;13.10;;;5.80;;
17091;SDS011;8661;45.700;4.880;2023-06-22T10:33:16;10.90;;;4.80;;
17091;SDS011;8661;45.700;4.880;2023-06-22T10:35:44;17.03;;;5.60;;
17091;SDS011;8661;45.700;4.880;2023-06-22T10:38:12;12.63;;;5.03;;
17091;SDS011;8661;45.700;4.880;2023-06-22T10:40:39;12.37;;;5.37;;
17091;SDS011;8661;45.700;4.880;2023-06-22T10:43:06;10.60;;;4.17;;
17091;SDS011;8661;45.700;4.880;2023-06-22T10:45:32;11.43;;;4.13;;
17091;SDS011;8661;45.700;4.880;2023-06-22T10:47:59;6.40;;;3.10;;
17091;SDS011;8661;45.700;4.880;2023-06-22T10:50:26;7.73;;;2.83;;
17091;SDS011;8661;45.700;4.880;2023-06-22T10:52:53;6.47;;;2.90;;
17091;SDS011;8661;45.700;4.880;2023-06-22T10:55:22;7.60;;;3.33;;
17091;SDS011;8661;45.700;4.880;2023-06-22T10:57:49;9.87;;;2.90;;
17091;SDS011;8661;45.700;4.880;2023-06-22T11:00:17;11.13;;;3.03;;
17091;SDS011;8661;45.700;4.880;2023-06-22T11:02:44;9.03;;;2.93;;
17091;SDS011;8661;45.700;4.880;2023-06-22T11:05:11;9.10;;;3.40;;
17091;SDS011;8661;45.700;4.880;2023-06-22T11:07:38;10.07;;;3.33;;
17091;SDS011;8661;45.700;4.880;2023-06-22T11:10:08;6.87;;;2.93;;
17091;SDS011;8661;45.700;4.880;2023-06-22T11:12:37;10.53;;;3.30;;
17091;SDS011;8661;45.700;4.880;2023-06-22T11:15:04;8.63;;;2.73;;
17091;SDS011;8661;45.700;4.880;2023-06-22T11:17:32;7.73;;;2.63;;
17091;SDS011;8661;45.700;4.880;2023-06-22T11:19:59;6.97;;;3.00;;
17091;SDS011;8661;45.700;4.880;2023-06-22T11:22:26;7.10;;;3.17;;
17091;SDS011;8661;45.700;4.880;2023-06-22T11:24:53;6.97;;;3.23;;
17091;SDS011;8661;45.700;4.880;2023-06-22T11:27:20;6.77;;;3.37;;
17091;SDS011;8661;45.700;4.880;2023-06-22T11:29:48;5.00;;;3.17;;
17091;SDS011;8661;45.700;4.880;2023-06-22T11:32:15;9.97;;;2.93;;
17091;SDS011;8661;45.700;4.880;2023-06-22T11:34:42;11.27;;;3.90;;
17091;SDS011;8661;45.700;4.880;2023-06-22T11:37:09;9.23;;;2.87;;
17091;SDS011;8661;45.700;4.880;2023-06-22T11:39:36;7.07;;;3.13;;
17091;SDS011;8661;45.700;4.880;2023-06-22T11:42:02;5.10;;;2.80;;
17091;SDS011;8661;45.700;4.880;2023-06-22T11:44:30;7.20;;;3.10;;
17091;SDS011;8661;45.700;4.880;2023-06-22T11:46:58;10.30;;;3.77;;
17091;SDS011;8661;45.700;4.880;2023-06-22T11:49:26;7.70;;;3.10;;
17091;SDS011;8661;45.700;4.880;2023-06-22T11:51:52;8.10;;;2.93;;
17091;SDS011;8661;45.700;4.880;2023-06-22T11:54:19;6.27;;;3.30;;
17091;SDS011;8661;45.700;4.880;2023-06-22T11:56:46;8.03;;;2.60;;
17091;SDS011;8661;45.700;4.880;2023-06-22T11:59:13;4.70;;;3.00;;
17091;SDS011;8661;45.700;4.880;2023-06-22T12:01:40;6.17;;;3.00;;
17091;SDS011;8661;45.700;4.880;2023-06-22T12:04:08;6.90;;;3.17;;
17091;SDS011;8661;45.700;4.880;2023-06-22T12:06:37;21.87;;;4.40;;
17091;SDS011;8661;45.700;4.880;2023-06-22T12:09:08;6.27;;;3.30;;
17091;SDS011;8661;45.700;4.880;2023-06-22T12:11:35;10.60;;;3.43;;
17091;SDS011;8661;45.700;4.880;2023-06-22T12:14:03;4.17;;;3.00;;
17091;SDS011;8661;45.700;4.880;2023-06-22T12:16:30;4.40;;;2.60;;
17091;SDS011;8661;45.700;4.880;2023-06-22T12:18:57;4.40;;;3.07;;
17091;SDS011;8661;45.700;4.880;2023-06-22T12:21:25;4.70;;;3.20;;
17091;SDS011;8661;45.700;4.880;2023-06-22T12:23:54;8.13;;;3.50;;
17091;SDS011;8661;45.700;4.880;2023-06-22T12:26:21;5.90;;;3.20;;
17091;SDS011;8661;45.700;4.880;2023-06-22T12:28:48;4.60;;;3.03;;
17091;SDS011;8661;45.700;4.880;2023-06-22T12:31:15;8.67;;;3.17;;
17091;SDS011;8661;45.700;4.880;2023-06-22T12:33:42;5.77;;;3.10;;
17091;SDS011;8661;45.700;4.880;2023-06-22T12:36:08;7.23;;;2.93;;
17091;SDS011;8661;45.700;4.880;2023-06-22T12:38:37;5.23;;;2.90;;
17091;SDS011;8661;45.700;4.880;2023-06-22T12:41:03;5.53;;;3.10;;
17091;SDS011;8661;45.700;4.880;2023-06-22T12:43:30;11.60;;;3.57;;
17091;SDS011;8661;45.700;4.880;2023-06-22T12:45:57;12.90;;;4.10;;
17091;SDS011;8661;45.700;4.880;2023-06-22T12:48:25;14.87;;;4.50;;
17091;SDS011;8661;45.700;4.880;2023-06-22T12:50:53;1.40;;;0.93;;
17091;SDS011;8661;45.700;4.880;2023-06-22T12:53:20;0.77;;;0.57;;
17091;SDS011;8661;45.700;4.880;2023-06-22T12:55:49;0.20;;;0.20;;
17091;SDS011;8661;45.700;4.880;2023-06-22T12:58:16;0.83;;;0.37;;
17091;SDS011;8661;45.700;4.880;2023-06-22T13:00:43;0.00;;;0.00;;
17091;SDS011;8661;45.700;4.880;2023-06-22T13:03:09;1.50;;;0.40;;
17091;SDS011;8661;45.700;4.880;2023-06-22T13:05:36;0.13;;;0.13;;
17091;SDS011;8661;45.700;4.880;2023-06-22T13:08:03;0.00;;;0.00;;
17091;SDS011;8661;45.700;4.880;2023-06-22T13:10:30;0.00;;;0.00;;
17091;SDS011;8661;45.700;4.880;2023-06-22T13:12:58;0.00;;;0.00;;
17091;SDS011;8661;45.700;4.880;2023-06-22T13:15:26;0.00;;;0.00;;
17091;SDS011;8661;45.700;4.880;2023-06-22T13:17:54;0.10;;;0.10;;
17091;SDS011;8661;45.700;4.880;2023-06-22T13:20:21;0.10;;;0.10;;
17091;SDS011;8661;45.700;4.880;2023-06-22T13:22:48;0.00;;;0.00;;
17091;SDS011;8661;45.700;4.880;2023-06-22T13:25:15;0.20;;;0.20;;
17091;SDS011;8661;45.700;4.880;2023-06-22T13:27:44;0.00;;;0.00;;
17091;SDS011;8661;45.700;4.880;2023-06-22T13:30:12;0.00;;;0.00;;
17091;SDS011;8661;45.700;4.880;2023-06-22T13:32:39;0.10;;;0.10;;
17091;SDS011;8661;45.700;4.880;2023-06-22T13:35:08;0.00;;;0.00;;
17091;SDS011;8661;45.700;4.880;2023-06-22T13:37:35;0.00;;;0.00;;
17091;SDS011;8661;45.700;4.880;2023-06-22T13:40:03;0.00;;;0.00;;
17091;SDS011;8661;45.700;4.880;2023-06-22T13:42:31;0.00;;;0.00;;
17091;SDS011;8661;45.700;4.880;2023-06-22T13:44:58;0.00;;;0.00;;
17091;SDS011;8661;45.700;4.880;2023-06-22T13:47:27;0.00;;;0.00;;
17091;SDS011;8661;45.700;4.880;2023-06-22T13:49:54;0.00;;;0.00;;
17091;SDS011;8661;45.700;4.880;2023-06-22T13:52:22;0.00;;;0.00;;
17091;SDS011;8661;45.700;4.880;2023-06-22T13:54:49;0.00;;;0.00;;
17091;SDS011;8661;45.700;4.880;2023-06-22T13:57:16;0.00;;;0.00;;
17091;SDS011;8661;45.700;4.880;2023-06-22T13:59:43;0.00;;;0.00;;
17091;SDS011;8661;45.700;4.880;2023-06-22T14:02:10;0.20;;;0.20;;
17091;SDS011;8661;45.700;4.880;2023-06-22T14:04:38;0.10;;;0.10;;
17091;SDS011;8661;45.700;4.880;2023-06-22T14:07:05;0.10;;;0.10;;
17091;SDS011;8661;45.700;4.880;2023-06-22T14:09:32;0.03;;;0.03;;
17091;SDS011;8661;45.700;4.880;2023-06-22T14:12:02;0.20;;;0.20;;
17091;SDS011;8661;45.700;4.880;2023-06-22T14:14:30;0.00;;;0.00;;
17091;SDS011;8661;45.700;4.880;2023-06-22T14:17:00;0.03;;;0.03;;
17091;SDS011;8661;45.700;4.880;2023-06-22T14:19:27;0.30;;;0.20;;
17091;SDS011;8661;45.700;4.880;2023-06-22T14:21:56;0.00;;;0.00;;
17091;SDS011;8661;45.700;4.880;2023-06-22T14:24:23;0.00;;;0.00;;
17091;SDS011;8661;45.700;4.880;2023-06-22T14:26:50;0.00;;;0.00;;
17091;SDS011;8661;45.700;4.880;2023-06-22T14:29:17;0.10;;;0.10;;
17091;SDS011;8661;45.700;4.880;2023-06-22T14:31:44;0.00;;;0.00;;
17091;SDS011;8661;45.700;4.880;2023-06-22T14:34:12;0.03;;;0.03;;
17091;SDS011;8661;45.700;4.880;2023-06-22T14:36:39;0.00;;;0.00;;
17091;SDS011;8661;45.700;4.880;2023-06-22T14:39:07;0.10;;;0.10;;
17091;SDS011;8661;45.700;4.880;2023-06-22T14:41:34;0.00;;;0.00;;
17091;SDS011;8661;45.700;4.880;2023-06-22T14:44:01;0.00;;;0.00;;
17091;SDS011;8661;45.700;4.880;2023-06-22T14:46:28;0.00;;;0.00;;
17091;SDS011;8661;45.700;4.880;2023-06-22T14:48:55;0.00;;;0.00;;
17091;SDS011;8661;45.700;4.880;2023-06-22T14:51:22;0.00;;;0.00;;
17091;SDS011;8661;45.700;4.880;2023-06-22T14:53:49;0.00;;;0.00;;